KJST/JST METAR and TAF weather

Enter ICAO airport designator
Station Type Date Time Source
KJST METAR 2019/08/26 07:54 UTC NOAA

KJST 260754Z AUTO 13003KT 10SM CLR 13/10 A3022 RMK AO2 SLP226 T01330100


Station Type Date Time Source
KJST Decoded METAR 2019/08/26 07:54 UTC NOAA

Station name not available
Aug 26, 2019 - 03:54 AM EDT / 2019.08.26 0754 UTC
Wind: from the SE (130 degrees) at 3 MPH (3 KT):0
Visibility: 10 mile(s):0
Sky conditions: clear
Temperature: 55.9 F (13.3 C)
Dew Point: 50.0 F (10.0 C)
Relative Humidity: 80%
Pressure (altimeter): 30.22 in. Hg (1023 hPa)
ob: KJST 260754Z AUTO 13003KT 10SM CLR 13/10 A3022 RMK AO2 SLP226 T01330100
cycle: 8

Station Type Date Time Source
KJST TAF 2019/08/26 06:34 UTC NOAA

TAF KJST 260532Z 2606/2706 12006KT P6SM BKN250
FM261100 12007KT P6SM BKN015
FM261500 14008G15KT P6SM SCT040
FM270400 13008G15KT P6SM BKN035

Example: see airport list